Time;durP1;ratioP1;P1;durP2;ratioP2;P2;SDS_P1;SDS_P2;PMS_P1;PMS_P2;Temp;Humidity;BMP_temperature;BMP_pressure;BME280_temperature;BME280_humidity;BME280_pressure;Samples;Min_cycle;Max_cycle;Signal;HPM_P1;HPM_P2
2023/11/24 00:01:45;;;;;;;2.38;1.80;;;8.30;99.90;;;;;;7371669;19;20021;-69
2023/11/24 00:04:15;;;;;;;3.55;1.92;;;8.30;99.90;;;;;;7375381;19;20011;-68
2023/11/24 00:06:51;;;;;;;3.05;1.95;;;8.30;99.90;;;;;;7370737;19;20015;-69
2023/11/24 00:09:21;;;;;;;2.47;1.70;;;8.30;99.90;;;;;;7372796;19;20130;-68
2023/11/24 00:11:52;;;;;;;2.13;1.55;;;8.30;99.90;;;;;;7374435;19;20018;-68
2023/11/24 00:14:22;;;;;;;3.22;2.05;;;8.40;99.90;;;;;;7372994;19;20010;-68
2023/11/24 00:16:52;;;;;;;3.53;1.70;;;8.30;99.90;;;;;;7372783;19;20021;-68
2023/11/24 00:19:22;;;;;;;1.70;1.33;;;8.20;99.90;;;;;;7374496;19;20010;-68
2023/11/24 00:21:55;;;;;;;3.17;1.33;;;8.10;99.90;;;;;;7374128;19;20013;-68
2023/11/24 00:24:25;;;;;;;1.48;0.95;;;8.00;99.90;;;;;;7373377;19;20467;-68
2023/11/24 00:26:55;;;;;;;1.85;1.20;;;7.90;99.90;;;;;;7372806;19;20014;-68
2023/11/24 00:29:26;;;;;;;3.45;1.00;;;7.90;99.90;;;;;;7373904;19;20021;-68
2023/11/24 00:31:56;;;;;;;1.45;1.10;;;7.90;99.90;;;;;;7373810;19;20017;-68
2023/11/24 00:34:26;;;;;;;1.50;1.17;;;7.80;99.90;;;;;;7372898;19;20020;-68
2023/11/24 00:37:01;;;;;;;0.93;0.82;;;7.90;99.90;;;;;;7374044;19;20081;-68
2023/11/24 00:39:31;;;;;;;2.25;1.02;;;7.90;99.90;;;;;;7373584;19;20014;-68
2023/11/24 00:42:01;;;;;;;4.03;1.00;;;7.90;99.90;;;;;;7376842;19;20010;-68
2023/11/24 00:44:32;;;;;;;2.70;1.20;;;7.90;99.90;;;;;;7375438;19;20087;-68
2023/11/24 00:47:03;;;;;;;2.50;0.90;;;7.90;99.90;;;;;;7372630;19;20045;-68
2023/11/24 00:49:34;;;;;;;1.25;0.90;;;7.90;96.30;;;;;;7373415;19;20014;-69
2023/11/24 00:52:07;;;;;;;2.75;1.00;;;8.00;90.80;;;;;;7373537;19;20002;-67
2023/11/24 00:54:37;;;;;;;2.72;0.88;;;8.00;86.80;;;;;;7372324;19;20025;-67
2023/11/24 00:57:07;;;;;;;1.20;0.90;;;8.10;77.00;;;;;;7373692;19;20045;-67
2023/11/24 00:59:37;;;;;;;1.45;0.80;;;8.00;64.10;;;;;;7372330;19;20089;-68
2023/11/24 01:02:07;;;;;;;2.97;1.00;;;8.10;56.80;;;;;;7373018;19;20047;-68
2023/11/24 01:04:38;;;;;;;1.92;0.70;;;8.10;56.50;;;;;;7371821;19;20028;-67
2023/11/24 01:07:10;;;;;;;1.98;0.82;;;8.00;53.40;;;;;;7373187;19;20348;-67
2023/11/24 01:09:41;;;;;;;1.20;1.02;;;8.10;56.20;;;;;;7373237;19;20109;-67
2023/11/24 01:12:11;;;;;;;1.00;0.70;;;8.10;58.00;;;;;;7373222;19;20089;-68
2023/11/24 01:14:41;;;;;;;1.38;0.75;;;8.10;59.30;;;;;;7371641;19;20041;-68
2023/11/24 01:17:12;;;;;;;0.73;0.70;;;8.20;55.30;;;;;;7373340;19;20722;-68
2023/11/24 01:19:42;;;;;;;1.20;0.60;;;8.40;48.20;;;;;;7373198;19;20082;-69
2023/11/24 01:22:15;;;;;;;1.67;0.50;;;8.70;24.30;;;;;;7373010;19;20765;-69
2023/11/24 01:24:47;;;;;;;0.75;0.50;;;9.00;1.00;;;;;;7372052;19;20017;-69
2023/11/24 01:27:17;;;;;;;0.70;0.65;;;9.10;1.00;;;;;;7371945;19;20014;-69
2023/11/24 01:29:47;;;;;;;0.60;0.45;;;9.30;1.00;;;;;;7372994;19;20533;-69
2023/11/24 01:32:17;;;;;;;1.30;0.57;;;9.20;1.00;;;;;;7372785;19;20073;-68
2023/11/24 01:34:47;;;;;;;1.63;0.73;;;9.30;1.00;;;;;;7370458;19;20011;-69
2023/11/24 01:37:20;;;;;;;0.95;0.63;;;9.30;1.00;;;;;;7372044;19;20078;-68
2023/11/24 01:39:50;;;;;;;1.02;0.63;;;9.30;1.00;;;;;;7372986;19;20043;-67
2023/11/24 01:42:20;;;;;;;1.70;0.75;;;9.40;1.00;;;;;;7374242;19;20862;-67
2023/11/24 01:44:50;;;;;;;0.88;0.70;;;9.40;1.00;;;;;;7371731;19;20010;-67
2023/11/24 01:47:21;;;;;;;0.75;0.70;;;9.30;1.00;;;;;;7372759;19;20015;-67
2023/11/24 01:49:51;;;;;;;0.57;0.50;;;9.40;1.00;;;;;;7371467;19;20430;-68
2023/11/24 01:52:23;;;;;;;0.88;0.60;;;9.40;1.00;;;;;;7373768;19;20011;-68
2023/11/24 01:54:54;;;;;;;0.60;0.60;;;9.40;1.00;;;;;;7371913;19;20022;-67
2023/11/24 01:57:24;;;;;;;0.68;0.68;;;9.30;1.00;;;;;;7373497;19;20006;-68
2023/11/24 01:59:55;;;;;;;1.35;0.70;;;9.30;1.00;;;;;;7377581;19;20014;-67
2023/11/24 02:02:25;;;;;;;1.42;0.70;;;9.30;1.00;;;;;;7376893;19;20399;-68
2023/11/24 02:04:58;;;;;;;0.70;0.65;;;9.20;7.50;;;;;;7376941;19;20636;-68
2023/11/24 02:07:32;;;;;;;1.35;0.98;;;9.10;16.10;;;;;;7378012;19;20359;-68
2023/11/24 02:10:02;;;;;;;1.83;1.00;;;9.00;26.20;;;;;;7379223;19;20378;-68
2023/11/24 02:12:32;;;;;;;2.05;1.20;;;9.00;33.40;;;;;;7378077;19;20031;-67
2023/11/24 02:15:03;;;;;;;1.00;0.90;;;9.00;30.80;;;;;;7376764;19;20477;-68
2023/11/24 02:17:35;;;;;;;1.48;1.20;;;9.00;45.10;;;;;;7377412;19;20006;-68
2023/11/24 02:20:09;;;;;;;1.20;1.10;;;8.90;54.50;;;;;;7377910;19;20040;-67
2023/11/24 02:22:43;;;;;;;1.35;0.98;;;8.90;59.80;;;;;;7377285;19;20038;-67
2023/11/24 02:25:14;;;;;;;1.58;1.17;;;8.90;55.90;;;;;;7376738;19;20524;-68
2023/11/24 02:27:44;;;;;;;1.50;1.20;;;9.00;51.40;;;;;;7377273;19;20018;-68
2023/11/24 02:30:15;;;;;;;1.13;1.02;;;9.00;52.20;;;;;;7377360;19;20010;-68
2023/11/24 02:32:45;;;;;;;1.35;1.20;;;8.90;59.50;;;;;;7376934;19;20446;-69
2023/11/24 02:35:15;;;;;;;6.50;1.30;;;8.90;72.00;;;;;;7376010;19;20033;-69
2023/11/24 02:37:48;;;;;;;2.78;1.40;;;8.90;77.20;;;;;;7377258;19;20367;-68
2023/11/24 02:40:18;;;;;;;2.50;1.30;;;8.80;83.00;;;;;;7375950;19;20006;-68
2023/11/24 02:42:48;;;;;;;1.92;1.40;;;8.80;88.60;;;;;;7378914;19;20007;-68
2023/11/24 02:45:18;;;;;;;1.30;1.17;;;8.80;93.70;;;;;;7377333;19;20011;-68
2023/11/24 02:47:48;;;;;;;1.95;1.40;;;8.70;99.90;;;;;;7377807;19;20025;-68
2023/11/24 02:50:19;;;;;;;1.98;1.17;;;8.70;99.90;;;;;;7377616;19;20006;-68
2023/11/24 02:52:52;;;;;;;1.30;1.20;;;8.70;99.90;;;;;;7376485;19;20014;-68
2023/11/24 02:55:22;;;;;;;1.40;1.02;;;8.60;99.90;;;;;;7375154;19;20011;-68
2023/11/24 02:57:52;;;;;;;1.40;1.10;;;8.70;99.90;;;;;;7376503;19;20014;-69
2023/11/24 03:00:22;;;;;;;1.10;0.80;;;8.60;99.90;;;;;;7377399;19;20015;-68
2023/11/24 03:02:54;;;;;;;1.48;1.10;;;8.60;99.90;;;;;;7378072;19;20025;-68
2023/11/24 03:05:25;;;;;;;5.45;1.65;;;8.60;99.90;;;;;;7376993;19;20540;-68
2023/11/24 03:07:58;;;;;;;1.77;0.85;;;8.60;99.90;;;;;;7377945;19;20086;-68
2023/11/24 03:10:28;;;;;;;1.10;0.75;;;8.60;99.90;;;;;;7375927;19;20011;-68
2023/11/24 03:12:58;;;;;;;2.17;0.85;;;8.70;99.90;;;;;;7378437;19;20361;-68
2023/11/24 03:15:28;;;;;;;1.17;0.93;;;8.80;99.90;;;;;;7376386;19;20011;-68
2023/11/24 03:17:58;;;;;;;1.00;0.80;;;8.80;92.90;;;;;;7378265;19;20581;-68
2023/11/24 03:20:28;;;;;;;1.05;0.60;;;8.90;67.20;;;;;;7380134;19;20017;-68
2023/11/24 03:23:01;;;;;;;1.15;0.80;;;9.00;50.50;;;;;;7380188;19;20025;-68
2023/11/24 03:25:34;;;;;;;0.68;0.60;;;9.00;34.90;;;;;;7373570;19;20018;-68
2023/11/24 03:28:04;;;;;;;0.65;0.50;;;9.10;23.70;;;;;;7376615;19;20467;-68
2023/11/24 03:30:35;;;;;;;0.50;0.40;;;9.10;22.90;;;;;;7375985;19;20775;-68
2023/11/24 03:33:06;;;;;;;0.50;0.40;;;9.10;23.40;;;;;;7377110;19;20018;-69
2023/11/24 03:35:36;;;;;;;0.70;0.50;;;9.00;32.10;;;;;;7375679;19;20063;-69
2023/11/24 03:38:09;;;;;;;0.70;0.40;;;9.20;18.60;;;;;;7376264;19;20025;-69
2023/11/24 03:40:39;;;;;;;1.13;0.52;;;9.20;15.70;;;;;;7376751;19;20010;-68
2023/11/24 03:43:09;;;;;;;0.43;0.40;;;9.20;17.90;;;;;;7376592;19;20021;-68
2023/11/24 03:45:39;;;;;;;0.65;0.57;;;9.20;14.10;;;;;;7375415;19;20384;-68
2023/11/24 03:48:09;;;;;;;0.40;0.40;;;9.20;6.40;;;;;;7374892;19;20022;-68
2023/11/24 03:50:40;;;;;;;1.00;0.40;;;9.20;9.30;;;;;;7377573;19;20006;-68
2023/11/24 03:53:12;;;;;;;1.15;0.50;;;9.20;11.70;;;;;;7377050;19;20031;-68
2023/11/24 03:55:43;;;;;;;1.20;0.50;;;9.10;15.20;;;;;;7374887;19;20022;-68
2023/11/24 03:58:13;;;;;;;1.20;0.60;;;9.10;16.80;;;;;;7376184;19;20003;-69
2023/11/24 04:00:46;;;;;;;1.10;0.75;;;9.10;15.00;;;;;;7374669;19;20018;-69
2023/11/24 04:03:17;;;;;;;1.33;0.50;;;9.10;17.40;;;;;;7379328;19;20525;-68
2023/11/24 04:05:48;;;;;;;0.65;0.40;;;9.10;14.70;;;;;;7376188;19;20029;-66
2023/11/24 04:08:20;;;;;;;0.50;0.40;;;9.10;15.40;;;;;;7376575;19;20426;-67
2023/11/24 04:10:50;;;;;;;0.60;0.52;;;9.10;20.30;;;;;;7378774;19;20014;-67
2023/11/24 04:13:20;;;;;;;0.80;0.50;;;9.20;15.50;;;;;;7378415;19;20031;-68
2023/11/24 04:15:50;;;;;;;0.50;0.40;;;9.20;13.10;;;;;;7375105;19;20092;-67
2023/11/24 04:18:20;;;;;;;0.50;0.40;;;9.10;15.50;;;;;;7378758;19;20031;-67
2023/11/24 04:20:51;;;;;;;1.20;0.60;;;9.10;15.40;;;;;;7377784;19;20490;-67
2023/11/24 04:23:23;;;;;;;0.68;0.55;;;9.10;14.70;;;;;;7377926;19;20018;-67
2023/11/24 04:25:54;;;;;;;0.95;0.73;;;9.20;2.80;;;;;;7376016;19;20024;-67
2023/11/24 04:28:24;;;;;;;0.50;0.40;;;9.10;4.30;;;;;;7377169;19;20696;-67
2023/11/24 04:30:55;;;;;;;0.50;0.40;;;9.10;3.70;;;;;;7375329;19;20094;-67
2023/11/24 04:33:25;;;;;;;0.50;0.43;;;9.10;3.10;;;;;;7378252;19;20056;-68
2023/11/24 04:35:57;;;;;;;1.45;0.60;;;9.10;7.80;;;;;;7375759;19;20014;-67
2023/11/24 04:38:32;;;;;;;3.38;1.17;;;8.90;10.30;;;;;;7377734;19;20501;-68
2023/11/24 04:41:02;;;;;;;;;;;7.70;7.00;;;;;;7376621;19;20006;-68
2023/11/24 04:43:32;;;;;;;1.92;0.73;;;7.30;14.90;;;;;;7377998;19;19911;-68
2023/11/24 04:46:02;;;;;;;1.88;0.85;;;7.20;66.50;;;;;;7377904;19;20013;-67
2023/11/24 04:48:34;;;;;;;3.00;0.82;;;7.10;75.60;;;;;;7375403;19;20052;-68
2023/11/24 04:51:04;;;;;;;2.25;1.00;;;7.00;99.90;;;;;;7377278;19;20002;-68
2023/11/24 04:53:39;;;;;;;4.13;1.27;;;7.00;99.90;;;;;;7371210;19;20023;-68
2023/11/24 04:56:10;;;;;;;2.35;1.20;;;7.00;99.90;;;;;;7377114;19;20010;-68
2023/11/24 04:58:41;;;;;;;3.78;1.25;;;6.90;99.90;;;;;;7376674;19;20017;-68
2023/11/24 05:01:08;;;;;;;7.50;1.67;;;6.90;99.90;;;;;;7373900;19;20552;-68
2023/11/24 05:03:39;;;;;;;7.85;1.80;;;6.80;99.90;;;;;;7375393;19;20018;-69
2023/11/24 05:06:10;;;;;;;4.82;1.55;;;6.80;99.90;;;;;;7375644;19;20010;-69
2023/11/24 05:08:42;;;;;;;6.95;1.58;;;6.70;99.90;;;;;;7375624;19;20011;-68
2023/11/24 05:11:16;;;;;;;7.05;1.90;;;6.70;99.90;;;;;;7375830;19;20021;-69
2023/11/24 05:13:48;;;;;;;8.43;2.03;;;6.70;99.90;;;;;;7376772;19;20074;-68
2023/11/24 05:16:18;;;;;;;7.60;2.15;;;6.70;99.90;;;;;;7375133;19;20014;-68
2023/11/24 05:18:49;;;;;;;8.48;2.30;;;6.70;99.90;;;;;;7375381;19;20014;-69
2023/11/24 05:21:19;;;;;;;7.63;2.05;;;6.60;99.90;;;;;;7375034;19;20010;-69
2023/11/24 05:23:51;;;;;;;4.95;1.88;;;6.60;99.90;;;;;;7373570;19;20131;-69
2023/11/24 05:26:25;;;;;;;7.45;2.60;;;6.60;99.90;;;;;;7374666;19;20018;-68
2023/11/24 05:28:54;;;;;;;8.65;2.42;;;6.50;99.90;;;;;;7374324;19;20026;-69
2023/11/24 05:31:25;;;;;;;9.23;3.03;;;6.50;99.90;;;;;;7374773;19;20018;-69
2023/11/24 05:33:55;;;;;;;12.73;2.83;;;6.40;99.90;;;;;;7377773;19;20420;-69
2023/11/24 05:36:27;;;;;;;10.02;2.53;;;6.40;99.90;;;;;;7382564;19;20028;-69
2023/11/24 05:39:00;;;;;;;9.43;2.60;;;6.40;99.90;;;;;;7382188;19;20014;-69
2023/11/24 05:41:30;;;;;;;11.02;3.05;;;6.40;99.90;;;;;;7381799;19;20103;-68
2023/11/24 05:44:00;;;;;;;10.90;3.42;;;6.30;99.90;;;;;;7383340;19;20026;-69
2023/11/24 05:46:30;;;;;;;10.05;2.60;;;6.30;99.90;;;;;;7382437;19;21016;-68
2023/11/24 05:49:01;;;;;;;11.43;2.97;;;6.30;99.90;;;;;;7381914;19;20490;-69
2023/11/24 05:51:32;;;;;;;9.00;2.80;;;6.30;99.90;;;;;;7381979;19;20027;-68
2023/11/24 05:54:05;;;;;;;11.85;4.18;;;6.20;99.90;;;;;;7381803;19;20467;-69
2023/11/24 05:56:36;;;;;;;16.90;5.20;;;6.30;99.90;;;;;;7380841;19;20041;-68
2023/11/24 05:59:06;;;;;;;17.67;4.97;;;6.30;99.90;;;;;;7390322;19;20230;-68
2023/11/24 06:01:36;;;;;;;14.63;3.53;;;6.30;99.90;;;;;;7393036;19;20023;-68
2023/11/24 06:04:07;;;;;;;11.55;2.95;;;6.30;99.90;;;;;;7383105;19;20356;-69
2023/11/24 06:06:37;;;;;;;11.45;2.65;;;6.30;99.90;;;;;;7382000;19;20057;-69
2023/11/24 06:09:12;;;;;;;9.98;2.40;;;6.50;65.70;;;;;;7391439;19;20479;-69
2023/11/24 06:11:42;;;;;;;6.95;2.75;;;6.40;55.00;;;;;;7381169;19;20009;-69
2023/11/24 06:14:12;;;;;;;5.38;2.28;;;6.50;23.20;;;;;;7379293;19;20010;-67
2023/11/24 06:16:42;;;;;;;8.80;2.45;;;6.50;29.00;;;;;;7381653;19;20058;-68
2023/11/24 06:19:12;;;;;;;8.02;2.58;;;6.50;39.60;;;;;;7381544;19;20003;-68
2023/11/24 06:21:42;;;;;;;8.55;2.80;;;6.40;49.30;;;;;;7380478;19;20386;-68
2023/11/24 06:24:14;;;;;;;8.60;2.95;;;6.50;64.60;;;;;;7379884;19;20017;-68
2023/11/24 06:26:44;;;;;;;6.60;2.53;;;6.40;78.20;;;;;;7378730;19;20376;-68
2023/11/24 06:29:15;;;;;;;13.50;3.30;;;6.40;84.50;;;;;;7378363;19;20007;-69
2023/11/24 06:31:44;;;;;;;13.23;3.30;;;6.40;91.30;;;;;;7379224;19;20014;-68
2023/11/24 06:34:14;;;;;;;9.10;3.67;;;6.40;97.20;;;;;;7378671;19;20039;-68
2023/11/24 06:36:45;;;;;;;13.35;3.60;;;6.40;97.50;;;;;;7378067;19;20341;-68
2023/11/24 06:39:19;;;;;;;7.57;3.30;;;6.40;96.60;;;;;;7378338;19;20082;-69
2023/11/24 06:41:47;;;;;;;;;;;6.50;95.70;;;;;;7379160;19;20017;-69
2023/11/24 06:44:18;;;;;;;11.18;3.65;;;6.50;87.90;;;;;;7379469;19;19922;-68
2023/11/24 06:46:48;;;;;;;11.02;4.00;;;6.50;87.70;;;;;;7380208;19;20078;-68
2023/11/24 06:49:19;;;;;;;9.18;3.30;;;6.50;91.80;;;;;;7380558;19;20009;-68
2023/11/24 06:51:50;;;;;;;5.80;2.85;;;6.60;86.90;;;;;;7380717;19;20070;-68
2023/11/24 06:54:23;;;;;;;10.82;2.95;;;6.60;90.90;;;;;;7379406;19;20563;-69
2023/11/24 06:56:53;;;;;;;13.15;3.85;;;6.50;92.40;;;;;;7380689;19;20010;-69
2023/11/24 06:59:23;;;;;;;7.68;3.25;;;6.50;94.70;;;;;;7379890;19;20014;-69
2023/11/24 07:01:53;;;;;;;9.63;3.65;;;6.60;98.00;;;;;;7378753;19;20010;-70
2023/11/24 07:04:23;;;;;;;9.05;3.70;;;6.60;97.50;;;;;;7379585;19;20040;-69
2023/11/24 07:06:53;;;;;;;8.38;3.22;;;6.60;95.20;;;;;;7377493;19;20035;-69
2023/11/24 07:09:26;;;;;;;9.35;3.30;;;6.60;91.40;;;;;;7379214;19;20030;-69
2023/11/24 07:11:56;;;;;;;10.65;3.80;;;6.70;78.10;;;;;;7379587;19;20015;-69
2023/11/24 07:14:26;;;;;;;9.75;3.58;;;6.80;25.80;;;;;;7378925;19;20803;-70
2023/11/24 07:16:56;;;;;;;8.68;3.05;;;6.90;12.50;;;;;;7378477;19;20060;-68
2023/11/24 07:19:26;;;;;;;9.68;3.83;;;6.90;6.30;;;;;;7379744;19;20041;-70
2023/11/24 07:21:57;;;;;;;10.80;4.78;;;6.90;6.40;;;;;;7380545;19;20043;-70
2023/11/24 07:24:29;;;;;;;11.10;5.07;;;6.90;17.00;;;;;;7381279;19;20381;-70
2023/11/24 07:27:00;;;;;;;10.57;3.88;;;6.90;16.40;;;;;;7380957;19;20010;-70
2023/11/24 07:29:30;;;;;;;9.23;2.97;;;6.90;27.90;;;;;;7377301;19;20434;-70
2023/11/24 07:32:01;;;;;;;9.15;2.50;;;6.90;4.70;;;;;;7379239;19;20014;-70
2023/11/24 07:34:32;;;;;;;12.10;2.40;;;6.80;1.00;;;;;;7377186;19;20105;-70
2023/11/24 07:37:03;;;;;;;14.15;2.55;;;6.70;1.00;;;;;;7378630;19;20018;-69
2023/11/24 07:39:36;;;;;;;9.23;2.47;;;6.60;3.00;;;;;;7379312;19;20010;-70
2023/11/24 07:42:06;;;;;;;8.10;2.30;;;6.60;1.70;;;;;;7379386;19;20007;-69
2023/11/24 07:44:36;;;;;;;12.93;2.97;;;6.60;3.00;;;;;;7378436;19;20073;-69
2023/11/24 07:47:06;;;;;;;13.48;3.00;;;6.60;19.70;;;;;;7377728;19;20011;-70
2023/11/24 07:49:36;;;;;;;9.18;3.08;;;6.60;42.00;;;;;;7379246;19;20014;-69
2023/11/24 07:52:07;;;;;;;8.45;2.33;;;6.50;63.50;;;;;;7376553;19;20018;-69
2023/11/24 07:54:40;;;;;;;9.35;2.40;;;6.60;80.30;;;;;;7375378;19;20010;-69
2023/11/24 07:57:10;;;;;;;6.90;1.95;;;6.70;82.10;;;;;;7377478;19;20020;-70
2023/11/24 07:59:40;;;;;;;7.82;2.45;;;6.70;81.70;;;;;;7376129;19;20025;-70
2023/11/24 08:02:13;;;;;;;8.07;2.95;;;6.70;88.50;;;;;;7377142;19;20101;-69
2023/11/24 08:04:43;;;;;;;10.48;2.75;;;6.70;87.00;;;;;;7376976;19;20020;-69
2023/11/24 08:07:14;;;;;;;7.95;2.40;;;6.70;80.40;;;;;;7377534;19;20006;-70
2023/11/24 08:09:47;;;;;;;9.65;2.35;;;6.80;90.50;;;;;;7375607;19;20029;-69
2023/11/24 08:12:17;;;;;;;7.35;2.40;;;6.80;99.90;;;;;;7376816;19;20416;-70
2023/11/24 08:14:47;;;;;;;8.73;2.90;;;6.80;99.90;;;;;;7375241;19;20018;-69
2023/11/24 08:17:17;;;;;;;10.13;2.20;;;6.80;99.90;;;;;;7377363;19;20082;-69
2023/11/24 08:19:47;;;;;;;7.57;3.08;;;6.80;99.90;;;;;;7375833;19;20109;-70
2023/11/24 08:22:17;;;;;;;5.43;2.80;;;6.80;99.90;;;;;;7377144;19;20374;-69
2023/11/24 08:24:50;;;;;;;11.30;3.85;;;6.90;99.90;;;;;;7375595;19;20025;-69
2023/11/24 08:27:22;;;;;;;8.05;3.13;;;6.80;99.90;;;;;;7377114;19;20066;-69
2023/11/24 08:29:52;;;;;;;11.38;4.25;;;6.90;99.90;;;;;;7376906;19;20010;-70
2023/11/24 08:32:22;;;;;;;7.45;3.42;;;6.90;99.90;;;;;;7374015;19;20031;-70
2023/11/24 08:34:52;;;;;;;5.68;3.00;;;6.90;99.90;;;;;;7376910;19;20002;-70
2023/11/24 08:37:23;;;;;;;9.13;2.97;;;6.90;99.90;;;;;;7380745;19;20042;-70
2023/11/24 08:39:56;;;;;;;5.30;3.03;;;6.90;99.90;;;;;;7389254;19;20019;-70
2023/11/24 08:42:26;;;;;;;8.70;4.15;;;6.90;99.90;;;;;;7385012;19;20360;-70
2023/11/24 08:44:59;;;;;;;8.88;4.00;;;6.90;99.90;;;;;;7371513;19;20039;-71
2023/11/24 08:47:30;;;;;;;12.40;4.35;;;7.00;99.90;;;;;;7376830;19;20804;-70
2023/11/24 08:50:00;;;;;;;20.45;4.88;;;7.00;99.90;;;;;;7376723;19;20014;-71
2023/11/24 08:52:30;;;;;;;6.40;4.43;;;7.00;99.90;;;;;;7374986;19;20012;-70
2023/11/24 08:55:03;;;;;;;12.75;5.03;;;7.00;99.90;;;;;;7374384;19;20007;-70
2023/11/24 08:57:33;;;;;;;7.53;4.22;;;7.10;99.90;;;;;;7375388;19;20011;-70
2023/11/24 09:00:05;;;;;;;6.25;3.60;;;7.20;99.90;;;;;;7374350;19;20011;-70
2023/11/24 09:02:35;;;;;;;12.27;5.00;;;7.20;99.90;;;;;;7375450;19;20013;-70
2023/11/24 09:05:07;;;;;;;9.18;3.95;;;7.30;99.90;;;;;;7375434;19;20420;-71
2023/11/24 09:07:37;;;;;;;11.43;3.63;;;7.40;99.90;;;;;;7376782;19;20031;-70
2023/11/24 09:10:12;;;;;;;12.82;3.90;;;7.50;99.90;;;;;;7375140;19;20121;-70
2023/11/24 09:12:42;;;;;;;8.40;3.40;;;7.40;99.90;;;;;;7375063;19;20826;-70
2023/11/24 09:15:12;;;;;;;9.77;3.53;;;7.40;99.90;;;;;;7375200;19;20054;-70
2023/11/24 09:17:42;;;;;;;13.15;3.28;;;7.50;97.80;;;;;;7375202;19;20101;-69
2023/11/24 09:20:16;;;;;;;8.15;3.00;;;7.50;93.30;;;;;;7375840;19;20010;-70
2023/11/24 09:22:49;;;;;;;10.75;3.10;;;7.60;91.70;;;;;;7374963;19;20019;-70
2023/11/24 09:25:22;;;;;;;13.15;3.20;;;7.60;44.30;;;;;;7374573;19;20034;-69
2023/11/24 09:27:52;;;;;;;8.35;2.83;;;7.60;41.80;;;;;;7375714;19;20014;-70
2023/11/24 09:30:22;;;;;;;12.95;3.47;;;7.50;27.60;;;;;;7374970;19;20088;-70
2023/11/24 09:32:54;;;;;;;10.05;3.63;;;7.50;29.10;;;;;;7374196;19;20050;-70
2023/11/24 09:35:25;;;;;;;11.02;2.95;;;7.50;39.10;;;;;;7374593;19;20011;-70
2023/11/24 09:37:55;;;;;;;8.15;3.22;;;7.50;50.20;;;;;;7374742;19;20078;-70
2023/11/24 09:40:27;;;;;;;10.45;4.00;;;7.50;50.80;;;;;;7374192;19;20014;-69
2023/11/24 09:43:01;;;;;;;17.58;6.85;;;7.40;38.20;;;;;;7376216;19;20015;-69
2023/11/24 09:45:31;;;;;;;11.13;3.28;;;7.40;37.00;;;;;;7369605;19;20013;-68
2023/11/24 09:48:02;;;;;;;8.38;4.05;;;7.30;50.10;;;;;;7376280;19;20021;-69
2023/11/24 09:50:32;;;;;;;16.00;4.22;;;7.40;63.30;;;;;;7375523;19;20370;-69
2023/11/24 09:53:04;;;;;;;11.55;3.38;;;7.40;48.80;;;;;;7366662;19;19998;-69
2023/11/24 09:55:40;;;;;;;11.48;3.83;;;7.60;36.20;;;;;;7373613;19;20043;-69
2023/11/24 09:58:10;;;;;;;12.85;3.42;;;7.60;23.30;;;;;;7374526;19;20007;-70
2023/11/24 10:00:43;;;;;;;11.05;3.30;;;7.60;13.80;;;;;;7374482;19;20018;-70
2023/11/24 10:03:13;;;;;;;11.50;2.95;;;7.60;1.00;;;;;;7372839;19;20022;-70
2023/11/24 10:05:43;;;;;;;14.10;2.60;;;7.50;1.00;;;;;;7371860;19;20474;-70
2023/11/24 10:08:13;;;;;;;10.77;2.75;;;7.50;1.00;;;;;;7373438;19;20051;-70
2023/11/24 10:10:46;;;;;;;10.00;2.72;;;7.50;1.00;;;;;;7373320;19;20014;-70
2023/11/24 10:13:17;;;;;;;7.30;2.72;;;7.50;1.00;;;;;;7372227;19;20046;-70
2023/11/24 10:15:53;;;;;;;9.85;3.17;;;7.80;1.00;;;;;;7371451;19;20124;-69
2023/11/24 10:18:23;;;;;;;14.75;3.10;;;8.00;1.00;;;;;;7372697;19;20036;-69
2023/11/24 10:20:55;;;;;;;10.77;2.88;;;8.10;1.00;;;;;;7378736;19;20031;-70
2023/11/24 10:23:25;;;;;;;10.90;2.83;;;8.10;1.00;;;;;;7379878;19;20504;-69
2023/11/24 10:25:58;;;;;;;8.98;2.88;;;7.90;1.00;;;;;;7378874;19;20014;-71
2023/11/24 10:28:29;;;;;;;11.93;5.20;;;8.00;1.00;;;;;;7379445;19;20019;-70
2023/11/24 10:30:59;;;;;;;7.57;2.40;;;7.90;1.00;;;;;;7377323;19;20485;-70
2023/11/24 10:33:29;;;;;;;10.27;2.78;;;7.90;1.00;;;;;;7379989;19;20041;-70
2023/11/24 10:36:07;;;;;;;13.95;3.30;;;7.70;1.00;;;;;;7381197;19;20460;-70
2023/11/24 10:38:41;;;;;;;9.52;2.97;;;7.60;1.00;;;;;;7380356;19;20035;-69
2023/11/24 10:41:18;;;;;;;8.48;3.33;;;7.50;1.00;;;;;;7378640;19;20320;-69
2023/11/24 10:43:51;;;;;;;12.55;3.35;;;7.40;1.00;;;;;;7378790;19;20011;-69
2023/11/24 10:46:23;;;;;;;8.07;3.83;;;7.30;1.00;;;;;;7379332;19;20443;-70
2023/11/24 10:49:00;;;;;;;12.98;3.45;;;7.30;1.00;;;;;;7379585;19;20413;-70
2023/11/24 10:51:38;;;;;;;11.40;3.55;;;7.40;1.00;;;;;;7380833;19;20819;-69
2023/11/24 10:54:13;;;;;;;10.32;3.88;;;7.40;1.00;;;;;;7380017;19;20074;-69
2023/11/24 10:56:47;;;;;;;14.43;3.92;;;7.40;1.00;;;;;;7377884;19;20382;-70
2023/11/24 10:59:18;;;;;;;13.57;3.80;;;7.50;1.00;;;;;;7378673;19;20018;-70
2023/11/24 11:01:49;;;;;;;11.10;3.22;;;7.50;1.00;;;;;;7379976;19;20014;-70
2023/11/24 11:04:22;;;;;;;14.50;4.60;;;7.50;1.00;;;;;;7379554;19;20120;-70
2023/11/24 11:07:04;;;;;;;9.38;3.58;;;7.70;1.00;;;;;;7378957;19;20046;-69
2023/11/24 11:09:47;;;;;;;10.90;3.50;;;7.60;1.00;;;;;;7378874;19;20010;-69
2023/11/24 11:12:40;;;;;;;9.23;3.38;;;7.70;1.00;;;;;;7374588;19;20025;-69
2023/11/24 11:15:13;;;;;;;8.65;3.35;;;7.60;1.00;;;;;;7372366;19;20010;-70
2023/11/24 11:17:46;;;;;;;9.55;3.70;;;7.70;1.00;;;;;;7389001;19;20361;-69
2023/11/24 11:20:22;;;;;;;13.80;3.75;;;7.60;1.00;;;;;;7389626;19;20035;-68
2023/11/24 11:23:02;;;;;;;12.98;3.70;;;7.70;1.00;;;;;;7379756;19;20010;-68
2023/11/24 11:25:40;;;;;;;9.80;3.55;;;7.70;1.00;;;;;;7377491;19;20435;-69
2023/11/24 11:28:42;;;;;;;12.20;3.78;;;7.70;1.00;;;;;;7378202;19;20021;-69
2023/11/24 11:31:33;;;;;;;8.73;3.65;;;7.60;1.00;;;;;;6763119;19;2004233;-69
2023/11/24 11:34:16;;;;;;;14.07;3.58;;;7.70;1.00;;;;;;7378103;19;20003;-69
2023/11/24 11:37:11;;;;;;;12.52;3.58;;;7.70;1.00;;;;;;7377315;19;20010;-69
2023/11/24 11:39:53;;;;;;;;;;;7.60;1.00;;;;;;7378538;19;20098;-68
2023/11/24 11:42:31;;;;;;;12.57;3.28;;;7.70;1.00;;;;;;7173316;19;2003962;-69
2023/11/24 11:45:09;;;;;;;12.70;3.22;;;7.70;1.00;;;;;;7374442;19;20003;-69
2023/11/24 11:47:54;;;;;;;10.48;3.35;;;7.70;1.00;;;;;;7378175;19;20085;-69
2023/11/24 11:50:28;;;;;;;11.23;3.10;;;7.50;1.00;;;;;;6866547;19;2004682;-69
2023/11/24 11:53:00;;;;;;;10.75;3.00;;;7.50;1.00;;;;;;7377600;19;20011;-69
2023/11/24 11:55:31;;;;;;;12.60;3.63;;;7.40;1.00;;;;;;7377093;19;20046;-68
2023/11/24 11:58:04;;;;;;;12.65;3.45;;;7.30;1.00;;;;;;7375998;19;20010;-70
2023/11/24 12:00:34;;;;;;;9.55;2.60;;;7.30;1.00;;;;;;7377869;19;20051;-69
2023/11/24 12:03:07;;;;;;;12.75;3.28;;;7.20;1.00;;;;;;7377611;19;20018;-69
2023/11/24 12:05:37;;;;;;;14.13;3.53;;;7.30;1.00;;;;;;7376443;19;20011;-68
2023/11/24 12:08:08;;;;;;;8.82;2.53;;;7.30;1.00;;;;;;7375791;19;20011;-69
2023/11/24 12:10:39;;;;;;;11.57;3.28;;;7.20;1.00;;;;;;7373090;19;20009;-70
2023/11/24 12:13:12;;;;;;;9.80;2.80;;;7.20;1.00;;;;;;7374984;19;20798;-68
2023/11/24 12:15:43;;;;;;;10.82;2.88;;;7.30;1.00;;;;;;7376895;19;20057;-70
2023/11/24 12:18:19;;;;;;;9.15;2.55;;;7.30;1.00;;;;;;7373131;19;20010;-69
2023/11/24 12:20:51;;;;;;;10.00;2.67;;;7.30;1.00;;;;;;7371404;19;20019;-69
2023/11/24 12:23:24;;;;;;;7.70;2.50;;;7.40;1.00;;;;;;7376728;19;20661;-70
2023/11/24 12:25:55;;;;;;;9.95;2.58;;;7.40;1.00;;;;;;7376581;19;20055;-69
2023/11/24 12:28:25;;;;;;;14.40;2.88;;;7.30;1.00;;;;;;7377581;19;20036;-70
2023/11/24 12:30:57;;;;;;;6.18;2.35;;;7.30;1.00;;;;;;7377221;19;20049;-70
2023/11/24 12:33:29;;;;;;;7.25;2.60;;;7.20;1.00;;;;;;7378498;19;20637;-69
2023/11/24 12:36:00;;;;;;;8.38;2.58;;;7.20;1.00;;;;;;7376187;19;20400;-69
2023/11/24 12:38:30;;;;;;;8.85;2.40;;;7.20;1.00;;;;;;7376424;19;20017;-69
2023/11/24 12:41:00;;;;;;;6.68;2.30;;;7.20;1.00;;;;;;7378242;19;20018;-70
2023/11/24 12:43:34;;;;;;;5.32;2.10;;;7.20;1.00;;;;;;7372069;19;20010;-69
2023/11/24 12:46:04;;;;;;;7.35;2.47;;;7.10;1.00;;;;;;7375209;19;20014;-68
2023/11/24 12:48:39;;;;;;;7.70;2.33;;;7.10;1.00;;;;;;7377272;19;20354;-69
2023/11/24 12:51:10;;;;;;;7.05;2.28;;;7.10;1.00;;;;;;7377496;19;20010;-69
2023/11/24 12:53:40;;;;;;;8.35;2.63;;;7.10;1.00;;;;;;7376796;19;20082;-69
2023/11/24 12:56:11;;;;;;;7.30;2.45;;;7.00;1.00;;;;;;7375219;19;20014;-70
2023/11/24 12:58:41;;;;;;;7.80;2.17;;;7.00;1.00;;;;;;7376044;19;20031;-69
2023/11/24 13:01:11;;;;;;;3.75;1.80;;;7.00;1.00;;;;;;7377356;19;20011;-69
2023/11/24 13:03:44;;;;;;;9.07;2.75;;;6.90;1.00;;;;;;7376804;19;20018;-68
2023/11/24 13:06:14;;;;;;;9.10;1.50;;;6.70;1.00;;;;;;7371732;19;20104;-69
2023/11/24 13:08:45;;;;;;;2.83;1.33;;;6.60;1.00;;;;;;7373940;19;20036;-69
2023/11/24 13:11:15;;;;;;;3.65;1.30;;;6.50;1.00;;;;;;7376283;19;20021;-69
2023/11/24 13:13:45;;;;;;;2.97;1.13;;;6.50;1.00;;;;;;7371198;19;20050;-69
2023/11/24 13:16:15;;;;;;;2.67;1.17;;;6.30;1.00;;;;;;7374546;19;20471;-69
2023/11/24 13:18:49;;;;;;;6.63;1.50;;;6.10;1.00;;;;;;7377212;19;20017;-69
2023/11/24 13:21:19;;;;;;;6.10;2.10;;;6.10;1.00;;;;;;7370730;19;20548;-68